Aérodrome :
LOGIN :

S'inscrire | Disclaimer

   EN    FR    IT 

 










Légende :    VFR   VFR Marginal   IFR   IFR Intensif   IFR Très Intensif
Visi : 
Plafond : 
>= 8 km
>= 3000ft
5 à 8 km
1000 à 3000 ft
1500m à 5 km
500 à 1000 ft
800 à 1500m
200 à 500 ft
< 800m
< 200 ft
Symboles :   Orages  Brouillard  Fortes neiges  Fortes précipitations  Vent > 20 kt
SIGMETs :   Divers  Orages  Givrage  Turbulence  Onde Orograph.  Cendres Volcan.







- Altitude de l'aérodrome : 2697 ft
- Code IATA : BLJ


DABT - Batna

DERNIER METAR :
  • 270400Z 21003KT 9999 BKN023 19/12 Q1018

METARs EXPIRÉS :
  • 270300Z 17015KT 9999 BKN026 19/12 Q1016
  • 270200Z 25021KT 9999 BKN023 19/13 Q1019

TAF TAF DABT
Valide du 27 à 00h jusqu'au 28 à 00h UTC


262300Z 2700/2724 31009KT 8000 SCT026 SCT100
PROB40
TEMPO 2700/2710 5000 -TSRA FEW023CB
BECMG 2708/2710 01011KT
TEMPO 2710/2720 FEW023CB
Pas de NOTAMs connus pour ce terrain.
1 SIGMET publié pour la FIR Alger (DAAA) :
 
Orages noyés dans la masse
COR DAAA SIGMET 1 VALID 270100/270400 DAMM
DAAA ALGIERS FIR ISOL EMBD TS OBS AND FCST WI N3644 E00255 - N3710 E00425 - N3659 E00612 - N3621 E00741 - N3523 E00659 - N3536 E00442 - N3608 E00246 - N3644 E00255 TOP FL300 MOV NE=



MET'MAP, la Météo Aéronautique d'un coup d'oeil ! - Copyright ORBIFLY Décembre 2007 - Disclaimer

ORBIFLY MET'MAP TEAM :

Programmation & Développement : Alexandra Zaïnal
Conception & Développement : Baudouin d'Aumeries
Co-Programmation & Développement : Marc-Olivier Méhu
Soutien technique & logistique : Manuel Goepfert

Contact : metmap@orbifly.com




SOURCES & CREDITS :

   NOAA